N680RC KICT-KOPF
Flight info
| Callsign | N680RC |
|---|---|
| Flight time | 2h 39m |
| Altitude | 45000 |
| Route | BURDN CHELI ADDIE GAGLE ORRKK KRSTO CORRL SABEE CUURT1 |
| Aircraft | C680/M-SDFGHRWY/SB1 |
Departure
| Time | 2026-04-19 00:40 |
|---|---|
| Airport | Wichita Dwight D. Eisenhower National Airport (KICT) |
Arrival
| Time | 2026-04-19 03:19 |
|---|---|
| Airport | Miami-Opa Locka Executive Airport (KOPF) |
| Time | Latitude | Longitude | Altitude | Speed | Heading |
|---|---|---|---|---|---|
| 2026-04-19 00:31 | 37.64315 | -97.42085 | 1321 ft | 0 kts | 271° |
| 2026-04-19 00:37 | 37.64306 | -97.42103 | 1321 ft | 3 kts | 213° |
| 2026-04-19 00:37 | 37.64300 | -97.42138 | 1322 ft | 6 kts | 270° |
| 2026-04-19 00:38 | 37.64300 | -97.42196 | 1324 ft | 8 kts | 264° |
| 2026-04-19 00:38 | 37.64262 | -97.42217 | 1324 ft | 7 kts | 182° |
| 2026-04-19 00:38 | 37.64195 | -97.42220 | 1324 ft | 10 kts | 185° |
| 2026-04-19 00:38 | 37.64182 | -97.42274 | 1325 ft | 7 kts | 281° |
| 2026-04-19 00:39 | 37.64197 | -97.42335 | 1327 ft | 8 kts | 290° |
| 2026-04-19 00:39 | 37.64219 | -97.42405 | 1329 ft | 11 kts | 290° |
| 2026-04-19 00:39 | 37.64247 | -97.42501 | 1330 ft | 12 kts | 290° |
| 2026-04-19 00:39 | 37.64281 | -97.42613 | 1329 ft | 11 kts | 308° |
| 2026-04-19 00:40 | 37.64307 | -97.42622 | 1328 ft | 13 kts | 21° |
| 2026-04-19 00:40 | 37.64686 | -97.42444 | 1325 ft | 103 kts | 19° |
| 2026-04-19 00:40 | 37.65567 | -97.42034 | 1558 ft | 159 kts | 18° |
| 2026-04-19 00:40 | 37.66697 | -97.41513 | 2420 ft | 190 kts | 18° |
| 2026-04-19 00:41 | 37.68010 | -97.40926 | 3279 ft | 205 kts | 18° |
| 2026-04-19 00:41 | 37.69352 | -97.40309 | 4125 ft | 207 kts | 19° |
| 2026-04-19 00:41 | 37.70524 | -97.39068 | 4906 ft | 245 kts | 53° |
| 2026-04-19 00:41 | 37.71100 | -97.36867 | 4982 ft | 278 kts | 85° |
| 2026-04-19 00:42 | 37.70626 | -97.34599 | 5278 ft | 261 kts | 123° |
| 2026-04-19 00:42 | 37.69260 | -97.33039 | 6003 ft | 278 kts | 143° |
| 2026-04-19 00:42 | 37.67786 | -97.31387 | 6771 ft | 283 kts | 136° |
| 2026-04-19 00:42 | 37.66430 | -97.29552 | 7509 ft | 293 kts | 130° |
| 2026-04-19 00:43 | 37.65143 | -97.27496 | 8270 ft | 300 kts | 128° |
| 2026-04-19 00:43 | 37.63821 | -97.25438 | 9049 ft | 306 kts | 131° |
| 2026-04-19 00:43 | 37.62395 | -97.23375 | 9849 ft | 315 kts | 132° |
| 2026-04-19 00:43 | 37.60952 | -97.21293 | 10603 ft | 317 kts | 131° |
| 2026-04-19 00:44 | 37.59488 | -97.19120 | 11352 ft | 333 kts | 130° |
| 2026-04-19 00:44 | 37.57961 | -97.16840 | 11968 ft | 354 kts | 130° |
| 2026-04-19 00:44 | 37.56261 | -97.14329 | 11991 ft | 394 kts | 130° |
| 2026-04-19 00:44 | 37.54453 | -97.11680 | 11996 ft | 399 kts | 130° |
| 2026-04-19 00:45 | 37.52691 | -97.09092 | 12505 ft | 383 kts | 130° |
| 2026-04-19 00:45 | 37.50999 | -97.06598 | 13292 ft | 369 kts | 129° |
| 2026-04-19 00:45 | 37.49331 | -97.04143 | 14094 ft | 371 kts | 128° |
| 2026-04-19 00:45 | 37.47631 | -97.01640 | 14814 ft | 379 kts | 129° |
| 2026-04-19 00:46 | 37.45913 | -96.99120 | 15551 ft | 379 kts | 129° |
| 2026-04-19 00:46 | 37.44182 | -96.96585 | 16306 ft | 386 kts | 130° |
| 2026-04-19 00:46 | 37.42415 | -96.93995 | 17081 ft | 392 kts | 130° |
| 2026-04-19 00:46 | 37.40643 | -96.91365 | 17880 ft | 395 kts | 128° |
| 2026-04-19 00:47 | 37.39112 | -96.88456 | 18684 ft | 402 kts | 120° |
| 2026-04-19 00:47 | 37.37628 | -96.85449 | 19492 ft | 407 kts | 122° |
| 2026-04-19 00:47 | 37.36097 | -96.82423 | 20272 ft | 412 kts | 125° |
| 2026-04-19 00:47 | 37.34560 | -96.79416 | 21022 ft | 417 kts | 126° |
| 2026-04-19 00:48 | 37.32995 | -96.76323 | 21778 ft | 422 kts | 127° |
| 2026-04-19 00:48 | 37.31423 | -96.73189 | 22530 ft | 426 kts | 128° |
| 2026-04-19 00:48 | 37.29825 | -96.70023 | 23258 ft | 430 kts | 129° |
| 2026-04-19 00:48 | 37.28208 | -96.66841 | 23927 ft | 433 kts | 130° |
| 2026-04-19 00:49 | 37.26597 | -96.63662 | 24688 ft | 431 kts | 130° |
| 2026-04-19 00:49 | 37.24981 | -96.60472 | 25313 ft | 434 kts | 131° |
| 2026-04-19 00:49 | 37.23352 | -96.57263 | 25918 ft | 435 kts | 131° |
| 2026-04-19 00:49 | 37.21720 | -96.54054 | 26504 ft | 437 kts | 131° |
| 2026-04-19 00:50 | 37.20635 | -96.51920 | 26903 ft | 439 kts | 131° |
| 2026-04-19 00:50 | 37.18992 | -96.48690 | 27457 ft | 440 kts | 132° |
| 2026-04-19 00:50 | 37.17337 | -96.45442 | 28025 ft | 442 kts | 133° |
| 2026-04-19 00:50 | 37.15675 | -96.42184 | 28554 ft | 445 kts | 133° |
| 2026-04-19 00:51 | 37.14014 | -96.38924 | 29260 ft | 442 kts | 133° |
| 2026-04-19 00:51 | 37.11830 | -96.34644 | 30170 ft | 438 kts | 134° |
| 2026-04-19 00:51 | 37.10718 | -96.32473 | 30571 ft | 436 kts | 134° |
| 2026-04-19 00:51 | 37.09083 | -96.29284 | 31089 ft | 435 kts | 135° |
| 2026-04-19 00:52 | 37.07450 | -96.26098 | 31598 ft | 434 kts | 135° |
| 2026-04-19 00:52 | 37.05840 | -96.22958 | 32031 ft | 434 kts | 135° |
| 2026-04-19 00:52 | 37.04209 | -96.19780 | 32515 ft | 433 kts | 135° |
| 2026-04-19 00:52 | 37.02579 | -96.16609 | 33020 ft | 432 kts | 136° |
| 2026-04-19 00:53 | 37.00953 | -96.13445 | 33514 ft | 431 kts | 136° |
| 2026-04-19 00:53 | 36.99331 | -96.10296 | 34003 ft | 430 kts | 136° |
| 2026-04-19 00:53 | 36.97711 | -96.07152 | 34457 ft | 429 kts | 137° |
| 2026-04-19 00:53 | 36.96093 | -96.04016 | 34855 ft | 428 kts | 137° |
| 2026-04-19 00:54 | 36.94480 | -96.00888 | 35232 ft | 429 kts | 136° |
| 2026-04-19 00:54 | 36.93034 | -95.97558 | 35585 ft | 441 kts | 127° |
| 2026-04-19 00:54 | 36.91751 | -95.94128 | 35957 ft | 440 kts | 127° |
| 2026-04-19 00:54 | 36.90433 | -95.90681 | 36342 ft | 439 kts | 128° |
| 2026-04-19 00:55 | 36.89103 | -95.87254 | 36713 ft | 438 kts | 128° |
| 2026-04-19 00:55 | 36.87782 | -95.83819 | 37079 ft | 438 kts | 127° |
| 2026-04-19 00:55 | 36.86475 | -95.80385 | 37442 ft | 438 kts | 127° |
| 2026-04-19 00:55 | 36.85165 | -95.76963 | 37750 ft | 437 kts | 127° |
| 2026-04-19 00:56 | 36.83849 | -95.73555 | 38136 ft | 435 kts | 128° |
| 2026-04-19 00:56 | 36.82536 | -95.70154 | 38476 ft | 434 kts | 128° |
| 2026-04-19 00:56 | 36.81229 | -95.66756 | 38811 ft | 434 kts | 128° |
| 2026-04-19 00:56 | 36.79922 | -95.63363 | 39103 ft | 434 kts | 128° |
| 2026-04-19 00:57 | 36.78610 | -95.59969 | 39356 ft | 433 kts | 128° |
| 2026-04-19 00:57 | 36.77301 | -95.56585 | 39614 ft | 433 kts | 127° |
| 2026-04-19 00:57 | 36.75992 | -95.53203 | 39869 ft | 433 kts | 127° |
| 2026-04-19 00:57 | 36.74684 | -95.49825 | 40119 ft | 432 kts | 127° |
| 2026-04-19 00:58 | 36.73374 | -95.46448 | 40369 ft | 432 kts | 127° |
| 2026-04-19 00:58 | 36.72065 | -95.43077 | 40616 ft | 432 kts | 127° |
| 2026-04-19 00:58 | 36.70771 | -95.39746 | 40868 ft | 432 kts | 127° |
| 2026-04-19 00:58 | 36.69460 | -95.36378 | 41121 ft | 432 kts | 127° |
| 2026-04-19 00:59 | 36.68151 | -95.33018 | 41373 ft | 431 kts | 127° |
| 2026-04-19 00:59 | 36.66838 | -95.29649 | 41598 ft | 432 kts | 127° |
| 2026-04-19 00:59 | 36.65526 | -95.26290 | 41834 ft | 432 kts | 127° |
| 2026-04-19 00:59 | 36.64212 | -95.22926 | 42075 ft | 431 kts | 126° |
| 2026-04-19 01:00 | 36.62901 | -95.19573 | 42258 ft | 431 kts | 127° |
| 2026-04-19 01:00 | 36.61585 | -95.16215 | 42475 ft | 431 kts | 127° |
| 2026-04-19 01:00 | 36.60269 | -95.12857 | 42703 ft | 432 kts | 127° |
| 2026-04-19 01:00 | 36.58953 | -95.09502 | 42935 ft | 431 kts | 126° |
| 2026-04-19 01:01 | 36.57632 | -95.06138 | 43164 ft | 431 kts | 126° |
| 2026-04-19 01:01 | 36.56313 | -95.02785 | 43392 ft | 431 kts | 126° |
| 2026-04-19 01:01 | 36.54995 | -94.99437 | 43617 ft | 431 kts | 126° |
| 2026-04-19 01:01 | 36.53675 | -94.96086 | 43842 ft | 431 kts | 126° |
| 2026-04-19 01:02 | 36.52351 | -94.92729 | 44040 ft | 432 kts | 126° |
| 2026-04-19 01:02 | 36.51026 | -94.89377 | 44219 ft | 432 kts | 126° |
| 2026-04-19 01:02 | 36.49715 | -94.86060 | 44407 ft | 432 kts | 126° |
| 2026-04-19 01:02 | 36.48389 | -94.82706 | 44591 ft | 432 kts | 126° |
| 2026-04-19 01:03 | 36.47059 | -94.79350 | 44765 ft | 432 kts | 126° |
| 2026-04-19 01:03 | 36.45729 | -94.75997 | 44933 ft | 432 kts | 126° |
| 2026-04-19 01:03 | 36.44399 | -94.72647 | 45075 ft | 432 kts | 126° |
| 2026-04-19 01:03 | 36.43070 | -94.69300 | 45201 ft | 432 kts | 126° |
| 2026-04-19 01:04 | 36.40403 | -94.62603 | 45293 ft | 433 kts | 126° |
| 2026-04-19 01:04 | 36.37717 | -94.55872 | 45284 ft | 437 kts | 126° |
| 2026-04-19 01:05 | 36.35008 | -94.49091 | 45291 ft | 441 kts | 126° |
| 2026-04-19 01:05 | 36.32268 | -94.42250 | 45279 ft | 444 kts | 126° |
| 2026-04-19 01:06 | 36.29508 | -94.35372 | 45281 ft | 447 kts | 126° |
| 2026-04-19 01:06 | 36.26723 | -94.28448 | 45283 ft | 450 kts | 126° |
| 2026-04-19 01:07 | 36.23917 | -94.21488 | 45285 ft | 453 kts | 126° |
| 2026-04-19 01:07 | 36.21109 | -94.14536 | 45280 ft | 455 kts | 126° |
| 2026-04-19 01:08 | 36.18263 | -94.07507 | 45278 ft | 458 kts | 126° |
| 2026-04-19 01:08 | 36.15399 | -94.00445 | 45277 ft | 459 kts | 126° |
| 2026-04-19 01:09 | 36.12522 | -93.93372 | 45277 ft | 461 kts | 126° |
| 2026-04-19 01:09 | 36.09626 | -93.86264 | 45274 ft | 464 kts | 126° |
| 2026-04-19 01:10 | 36.06728 | -93.79169 | 45255 ft | 465 kts | 126° |
| 2026-04-19 01:10 | 36.03805 | -93.72025 | 45258 ft | 467 kts | 126° |
| 2026-04-19 01:11 | 36.00866 | -93.64861 | 45261 ft | 468 kts | 126° |
| 2026-04-19 01:11 | 35.97916 | -93.57685 | 45259 ft | 469 kts | 126° |
| 2026-04-19 01:12 | 35.94952 | -93.50491 | 45253 ft | 470 kts | 126° |
| 2026-04-19 01:12 | 35.91987 | -93.43306 | 45256 ft | 470 kts | 127° |
| 2026-04-19 01:13 | 35.88620 | -93.36596 | 45245 ft | 460 kts | 135° |
| 2026-04-19 01:13 | 35.85049 | -93.30013 | 45244 ft | 462 kts | 134° |
| 2026-04-19 01:14 | 35.81461 | -93.23440 | 45241 ft | 462 kts | 135° |
| 2026-04-19 01:14 | 35.77855 | -93.16849 | 45233 ft | 464 kts | 135° |
| 2026-04-19 01:15 | 35.74239 | -93.10238 | 45240 ft | 465 kts | 135° |
| 2026-04-19 01:15 | 35.70609 | -93.03629 | 45227 ft | 465 kts | 135° |
| 2026-04-19 01:16 | 35.67008 | -92.97074 | 45233 ft | 466 kts | 135° |
| 2026-04-19 01:16 | 35.63362 | -92.90458 | 45233 ft | 467 kts | 135° |
| 2026-04-19 01:17 | 35.59710 | -92.83835 | 45223 ft | 467 kts | 135° |
| 2026-04-19 01:17 | 35.56058 | -92.77235 | 45234 ft | 467 kts | 135° |
| 2026-04-19 01:18 | 35.52397 | -92.70623 | 45237 ft | 468 kts | 135° |
| 2026-04-19 01:18 | 35.48727 | -92.64012 | 45233 ft | 469 kts | 135° |
| 2026-04-19 01:19 | 35.45047 | -92.57392 | 45233 ft | 469 kts | 135° |
| 2026-04-19 01:19 | 35.41384 | -92.50818 | 45232 ft | 470 kts | 135° |
| 2026-04-19 01:20 | 35.37687 | -92.44193 | 45230 ft | 471 kts | 135° |
| 2026-04-19 01:20 | 35.33977 | -92.37559 | 45227 ft | 472 kts | 135° |
| 2026-04-19 01:21 | 35.30254 | -92.30915 | 45220 ft | 473 kts | 135° |
| 2026-04-19 01:21 | 35.26524 | -92.24268 | 45220 ft | 474 kts | 135° |
| 2026-04-19 01:22 | 35.22785 | -92.17621 | 45179 ft | 475 kts | 135° |
| 2026-04-19 01:22 | 35.19041 | -92.10975 | 45219 ft | 475 kts | 135° |
| 2026-04-19 01:23 | 35.15288 | -92.04328 | 45222 ft | 475 kts | 135° |
| 2026-04-19 01:23 | 35.11526 | -91.97676 | 45227 ft | 476 kts | 135° |
| 2026-04-19 01:24 | 35.07753 | -91.91019 | 45222 ft | 476 kts | 135° |
| 2026-04-19 01:24 | 35.04004 | -91.84414 | 45218 ft | 476 kts | 135° |
| 2026-04-19 01:25 | 35.00221 | -91.77766 | 45235 ft | 477 kts | 135° |
| 2026-04-19 01:25 | 34.96438 | -91.71124 | 45224 ft | 476 kts | 135° |
| 2026-04-19 01:26 | 34.92650 | -91.64491 | 45225 ft | 476 kts | 135° |
| 2026-04-19 01:26 | 34.88858 | -91.57861 | 45226 ft | 477 kts | 135° |
| 2026-04-19 01:27 | 34.85060 | -91.51234 | 45228 ft | 476 kts | 135° |
| 2026-04-19 01:27 | 34.81263 | -91.44622 | 45226 ft | 477 kts | 135° |
| 2026-04-19 01:28 | 34.77486 | -91.38054 | 45225 ft | 477 kts | 135° |
| 2026-04-19 01:28 | 34.73678 | -91.31448 | 45219 ft | 477 kts | 135° |
| 2026-04-19 01:29 | 34.69871 | -91.24853 | 45214 ft | 476 kts | 135° |
| 2026-04-19 01:29 | 34.66060 | -91.18265 | 45208 ft | 476 kts | 135° |
| 2026-04-19 01:30 | 34.62252 | -91.11693 | 45205 ft | 476 kts | 135° |
| 2026-04-19 01:30 | 34.58442 | -91.05132 | 45199 ft | 475 kts | 135° |
| 2026-04-19 01:31 | 34.54623 | -90.98566 | 45200 ft | 475 kts | 135° |
| 2026-04-19 01:31 | 34.50811 | -90.92022 | 45197 ft | 475 kts | 135° |
| 2026-04-19 01:32 | 34.46984 | -90.85468 | 45169 ft | 475 kts | 135° |
| 2026-04-19 01:32 | 34.43192 | -90.78984 | 45195 ft | 474 kts | 135° |
| 2026-04-19 01:33 | 34.39376 | -90.72469 | 45195 ft | 474 kts | 135° |
| 2026-04-19 01:33 | 34.35557 | -90.65965 | 45202 ft | 474 kts | 135° |
| 2026-04-19 01:34 | 34.31737 | -90.59468 | 45208 ft | 474 kts | 135° |
| 2026-04-19 01:34 | 34.27914 | -90.52979 | 45208 ft | 473 kts | 135° |
| 2026-04-19 01:35 | 34.24086 | -90.46492 | 45208 ft | 473 kts | 135° |
| 2026-04-19 01:35 | 34.20258 | -90.40016 | 45200 ft | 472 kts | 136° |
| 2026-04-19 01:36 | 34.16438 | -90.33568 | 45192 ft | 472 kts | 136° |
| 2026-04-19 01:36 | 34.12599 | -90.27203 | 45179 ft | 467 kts | 139° |
| 2026-04-19 01:37 | 34.08521 | -90.21103 | 45169 ft | 467 kts | 139° |
| 2026-04-19 01:37 | 34.04464 | -90.14980 | 45164 ft | 467 kts | 139° |
| 2026-04-19 01:38 | 34.00392 | -90.08881 | 45162 ft | 467 kts | 139° |
| 2026-04-19 01:38 | 33.97007 | -90.03806 | 45162 ft | 467 kts | 139° |
| 2026-04-19 01:39 | 33.92932 | -89.97707 | 45156 ft | 466 kts | 139° |
| 2026-04-19 01:39 | 33.88194 | -89.90634 | 45147 ft | 467 kts | 139° |
| 2026-04-19 01:40 | 33.84771 | -89.85529 | 45149 ft | 468 kts | 139° |
| 2026-04-19 01:40 | 33.80677 | -89.79438 | 45148 ft | 468 kts | 139° |
| 2026-04-19 01:41 | 33.76604 | -89.73384 | 45143 ft | 469 kts | 139° |
| 2026-04-19 01:41 | 33.72496 | -89.67290 | 45131 ft | 470 kts | 139° |
| 2026-04-19 01:42 | 33.68377 | -89.61190 | 45119 ft | 470 kts | 139° |
| 2026-04-19 01:43 | 33.62185 | -89.52040 | 45115 ft | 470 kts | 139° |
| 2026-04-19 01:43 | 33.58052 | -89.45944 | 45120 ft | 471 kts | 139° |
| 2026-04-19 01:44 | 33.53935 | -89.39883 | 45119 ft | 471 kts | 139° |
| 2026-04-19 01:44 | 33.49792 | -89.33794 | 45103 ft | 472 kts | 139° |
| 2026-04-19 01:45 | 33.45631 | -89.27687 | 45084 ft | 472 kts | 139° |
| 2026-04-19 01:45 | 33.41469 | -89.21590 | 45084 ft | 472 kts | 139° |
| 2026-04-19 01:46 | 33.37311 | -89.15510 | 45096 ft | 472 kts | 139° |
| 2026-04-19 01:46 | 33.33148 | -89.09431 | 45099 ft | 472 kts | 139° |
| 2026-04-19 01:47 | 33.29005 | -89.03393 | 45061 ft | 473 kts | 139° |
| 2026-04-19 01:47 | 33.24831 | -88.97319 | 45050 ft | 473 kts | 139° |
| 2026-04-19 01:48 | 33.20648 | -88.91242 | 45033 ft | 473 kts | 139° |
| 2026-04-19 01:48 | 33.16461 | -88.85169 | 45006 ft | 474 kts | 139° |
| 2026-04-19 01:49 | 33.12273 | -88.79104 | 44983 ft | 472 kts | 138° |
| 2026-04-19 01:49 | 33.08091 | -88.73061 | 44946 ft | 472 kts | 138° |
| 2026-04-19 01:50 | 33.03903 | -88.67015 | 44977 ft | 472 kts | 138° |
| 2026-04-19 01:50 | 32.99742 | -88.61021 | 44993 ft | 472 kts | 138° |
| 2026-04-19 01:51 | 32.95525 | -88.54955 | 44979 ft | 472 kts | 139° |
| 2026-04-19 01:51 | 32.91363 | -88.48979 | 44962 ft | 472 kts | 139° |
| 2026-04-19 01:52 | 32.87168 | -88.42963 | 44946 ft | 471 kts | 138° |
| 2026-04-19 01:52 | 32.82976 | -88.36965 | 44957 ft | 471 kts | 139° |
| 2026-04-19 01:53 | 32.78789 | -88.30979 | 45032 ft | 471 kts | 139° |
| 2026-04-19 01:53 | 32.74593 | -88.24994 | 45030 ft | 471 kts | 139° |
| 2026-04-19 01:54 | 32.70399 | -88.19019 | 45068 ft | 471 kts | 139° |
| 2026-04-19 01:54 | 32.66199 | -88.13046 | 45068 ft | 471 kts | 139° |
| 2026-04-19 01:55 | 32.62019 | -88.07109 | 45068 ft | 470 kts | 138° |
| 2026-04-19 01:55 | 32.57820 | -88.01158 | 45045 ft | 469 kts | 138° |
| 2026-04-19 01:56 | 32.53607 | -87.95251 | 45044 ft | 466 kts | 141° |
| 2026-04-19 01:56 | 32.49115 | -87.89759 | 45041 ft | 464 kts | 143° |
| 2026-04-19 01:57 | 32.44640 | -87.84249 | 45028 ft | 464 kts | 143° |
| 2026-04-19 01:57 | 32.40154 | -87.78765 | 45027 ft | 464 kts | 143° |
| 2026-04-19 01:58 | 32.35699 | -87.73314 | 45017 ft | 464 kts | 143° |
| 2026-04-19 01:58 | 32.31207 | -87.67831 | 45003 ft | 463 kts | 143° |
| 2026-04-19 01:59 | 32.26724 | -87.62368 | 44998 ft | 463 kts | 143° |
| 2026-04-19 01:59 | 32.22242 | -87.56911 | 44994 ft | 463 kts | 143° |
| 2026-04-19 02:00 | 32.17758 | -87.51463 | 44984 ft | 462 kts | 143° |
| 2026-04-19 02:00 | 32.13276 | -87.46024 | 44984 ft | 462 kts | 143° |
| 2026-04-19 02:01 | 32.08787 | -87.40585 | 44987 ft | 462 kts | 143° |
| 2026-04-19 02:01 | 32.04302 | -87.35159 | 44951 ft | 462 kts | 143° |
| 2026-04-19 02:02 | 31.99844 | -87.29774 | 44977 ft | 461 kts | 143° |
| 2026-04-19 02:02 | 31.95358 | -87.24364 | 44949 ft | 462 kts | 143° |
| 2026-04-19 02:03 | 31.90868 | -87.18954 | 44976 ft | 462 kts | 143° |
| 2026-04-19 02:03 | 31.86368 | -87.13545 | 44972 ft | 462 kts | 143° |
| 2026-04-19 02:04 | 31.81865 | -87.08135 | 44973 ft | 462 kts | 143° |
| 2026-04-19 02:04 | 31.77356 | -87.02730 | 44979 ft | 463 kts | 143° |
| 2026-04-19 02:05 | 31.72855 | -86.97339 | 44979 ft | 462 kts | 143° |
| 2026-04-19 02:05 | 31.68376 | -86.91986 | 44986 ft | 461 kts | 142° |
| 2026-04-19 02:06 | 31.63874 | -86.86611 | 45007 ft | 462 kts | 142° |
| 2026-04-19 02:06 | 31.59368 | -86.81240 | 45008 ft | 462 kts | 142° |
| 2026-04-19 02:07 | 31.54858 | -86.75871 | 45020 ft | 462 kts | 142° |
| 2026-04-19 02:07 | 31.50342 | -86.70505 | 45013 ft | 462 kts | 143° |
| 2026-04-19 02:08 | 31.45822 | -86.65140 | 45028 ft | 462 kts | 143° |
| 2026-04-19 02:08 | 31.41301 | -86.59783 | 45017 ft | 462 kts | 143° |
| 2026-04-19 02:09 | 31.36781 | -86.54433 | 45018 ft | 462 kts | 143° |
| 2026-04-19 02:09 | 31.32263 | -86.49095 | 45036 ft | 462 kts | 143° |
| 2026-04-19 02:10 | 31.27771 | -86.43796 | 45036 ft | 462 kts | 143° |
| 2026-04-19 02:10 | 31.23247 | -86.38465 | 45044 ft | 462 kts | 143° |
| 2026-04-19 02:11 | 31.18718 | -86.33136 | 45024 ft | 462 kts | 143° |
| 2026-04-19 02:11 | 31.14191 | -86.27818 | 45043 ft | 462 kts | 143° |
| 2026-04-19 02:12 | 31.09654 | -86.22496 | 45053 ft | 462 kts | 143° |
| 2026-04-19 02:12 | 31.05117 | -86.17180 | 45040 ft | 462 kts | 143° |
| 2026-04-19 02:13 | 31.00576 | -86.11868 | 45051 ft | 462 kts | 143° |
| 2026-04-19 02:13 | 30.96061 | -86.06595 | 45052 ft | 462 kts | 143° |
| 2026-04-19 02:14 | 30.91513 | -86.01290 | 45052 ft | 462 kts | 143° |
| 2026-04-19 02:14 | 30.86965 | -85.95991 | 45064 ft | 462 kts | 143° |
| 2026-04-19 02:15 | 30.82420 | -85.90706 | 45068 ft | 462 kts | 143° |
| 2026-04-19 02:15 | 30.77897 | -85.85452 | 45067 ft | 462 kts | 143° |
| 2026-04-19 02:16 | 30.73341 | -85.80167 | 45065 ft | 462 kts | 143° |
| 2026-04-19 02:16 | 30.68805 | -85.74863 | 45070 ft | 463 kts | 143° |
| 2026-04-19 02:17 | 30.64253 | -85.69568 | 45069 ft | 463 kts | 143° |
| 2026-04-19 02:17 | 30.59699 | -85.64270 | 45065 ft | 463 kts | 143° |
| 2026-04-19 02:18 | 30.55142 | -85.58978 | 45056 ft | 464 kts | 143° |
| 2026-04-19 02:18 | 30.50577 | -85.53684 | 45066 ft | 464 kts | 143° |
| 2026-04-19 02:19 | 30.46004 | -85.48389 | 45064 ft | 465 kts | 143° |
| 2026-04-19 02:19 | 30.41427 | -85.43096 | 45065 ft | 465 kts | 143° |
| 2026-04-19 02:20 | 30.34550 | -85.35157 | 45041 ft | 466 kts | 143° |
| 2026-04-19 02:20 | 30.29960 | -85.29867 | 45034 ft | 465 kts | 143° |
| 2026-04-19 02:21 | 30.25368 | -85.24583 | 45042 ft | 466 kts | 143° |
| 2026-04-19 02:21 | 30.20772 | -85.19302 | 45042 ft | 466 kts | 143° |
| 2026-04-19 02:22 | 30.16170 | -85.14021 | 45045 ft | 466 kts | 143° |
| 2026-04-19 02:22 | 30.11565 | -85.08744 | 45054 ft | 466 kts | 143° |
| 2026-04-19 02:23 | 30.06982 | -85.03499 | 45056 ft | 467 kts | 142° |
| 2026-04-19 02:23 | 30.02365 | -84.98223 | 45058 ft | 467 kts | 142° |
| 2026-04-19 02:24 | 29.97745 | -84.92950 | 45059 ft | 467 kts | 142° |
| 2026-04-19 02:24 | 29.93119 | -84.87678 | 45062 ft | 467 kts | 142° |
| 2026-04-19 02:25 | 29.88488 | -84.82408 | 45065 ft | 468 kts | 142° |
| 2026-04-19 02:25 | 29.83882 | -84.77173 | 45065 ft | 468 kts | 142° |
| 2026-04-19 02:26 | 29.79213 | -84.71875 | 45066 ft | 468 kts | 142° |
| 2026-04-19 02:26 | 29.74599 | -84.66645 | 45062 ft | 469 kts | 142° |
| 2026-04-19 02:27 | 29.69955 | -84.61388 | 45067 ft | 468 kts | 141° |
| 2026-04-19 02:27 | 29.65308 | -84.56138 | 45068 ft | 468 kts | 141° |
| 2026-04-19 02:28 | 29.61438 | -84.51769 | 45072 ft | 469 kts | 141° |
| 2026-04-19 02:28 | 29.56782 | -84.46519 | 45072 ft | 469 kts | 141° |
| 2026-04-19 02:29 | 29.52120 | -84.41270 | 45071 ft | 469 kts | 142° |
| 2026-04-19 02:29 | 29.47446 | -84.36015 | 45074 ft | 470 kts | 142° |
| 2026-04-19 02:30 | 29.42776 | -84.30772 | 45074 ft | 470 kts | 142° |
| 2026-04-19 02:30 | 29.38110 | -84.25539 | 45071 ft | 469 kts | 141° |
| 2026-04-19 02:31 | 29.33436 | -84.20306 | 45074 ft | 469 kts | 141° |
| 2026-04-19 02:31 | 29.28766 | -84.15083 | 45074 ft | 469 kts | 141° |
| 2026-04-19 02:32 | 29.24124 | -84.09900 | 45072 ft | 469 kts | 141° |
| 2026-04-19 02:32 | 29.19445 | -84.04682 | 45077 ft | 469 kts | 141° |
| 2026-04-19 02:33 | 29.14766 | -83.99470 | 45074 ft | 469 kts | 141° |
| 2026-04-19 02:33 | 29.10076 | -83.94253 | 45080 ft | 469 kts | 141° |
| 2026-04-19 02:34 | 29.05389 | -83.89047 | 45075 ft | 469 kts | 141° |
| 2026-04-19 02:34 | 29.00701 | -83.83847 | 45075 ft | 469 kts | 141° |
| 2026-04-19 02:35 | 28.96010 | -83.78650 | 45073 ft | 470 kts | 141° |
| 2026-04-19 02:35 | 28.91343 | -83.73487 | 45077 ft | 470 kts | 141° |
| 2026-04-19 02:36 | 28.86668 | -83.68322 | 45085 ft | 470 kts | 141° |
| 2026-04-19 02:36 | 28.81964 | -83.63131 | 45087 ft | 470 kts | 141° |
| 2026-04-19 02:37 | 28.77259 | -83.57946 | 45075 ft | 470 kts | 140° |
| 2026-04-19 02:37 | 28.72554 | -83.52769 | 45078 ft | 470 kts | 140° |
| 2026-04-19 02:38 | 28.67847 | -83.47595 | 45075 ft | 470 kts | 140° |
| 2026-04-19 02:38 | 28.63160 | -83.42451 | 45075 ft | 470 kts | 140° |
| 2026-04-19 02:39 | 28.58446 | -83.37284 | 45078 ft | 471 kts | 140° |
| 2026-04-19 02:39 | 28.53721 | -83.32111 | 45078 ft | 471 kts | 140° |
| 2026-04-19 02:40 | 28.49001 | -83.26951 | 45072 ft | 470 kts | 140° |
| 2026-04-19 02:40 | 28.44277 | -83.21792 | 45077 ft | 471 kts | 140° |
| 2026-04-19 02:41 | 28.39519 | -83.16684 | 45074 ft | 468 kts | 145° |
| 2026-04-19 02:41 | 28.34204 | -83.12548 | 45079 ft | 463 kts | 152° |
| 2026-04-19 02:42 | 28.28840 | -83.08482 | 45079 ft | 463 kts | 151° |
| 2026-04-19 02:42 | 28.23500 | -83.04465 | 45082 ft | 463 kts | 152° |
| 2026-04-19 02:43 | 28.18118 | -83.00410 | 45074 ft | 463 kts | 151° |
| 2026-04-19 02:43 | 28.12742 | -82.96369 | 45071 ft | 464 kts | 152° |
| 2026-04-19 02:44 | 28.07360 | -82.92326 | 45074 ft | 464 kts | 151° |
| 2026-04-19 02:44 | 28.01976 | -82.88288 | 45074 ft | 464 kts | 152° |
| 2026-04-19 02:45 | 27.96626 | -82.84279 | 45049 ft | 465 kts | 151° |
| 2026-04-19 02:45 | 27.93892 | -82.82237 | 44502 ft | 478 kts | 151° |
| 2026-04-19 02:45 | 27.91080 | -82.80140 | 43850 ft | 490 kts | 151° |
| 2026-04-19 02:46 | 27.88216 | -82.77993 | 43217 ft | 496 kts | 151° |
| 2026-04-19 02:46 | 27.85337 | -82.75834 | 42560 ft | 496 kts | 150° |
| 2026-04-19 02:46 | 27.82465 | -82.73690 | 41910 ft | 494 kts | 151° |
| 2026-04-19 02:46 | 27.79602 | -82.71558 | 41243 ft | 491 kts | 151° |
| 2026-04-19 02:47 | 27.76752 | -82.69434 | 40599 ft | 489 kts | 150° |
| 2026-04-19 02:47 | 27.73915 | -82.67318 | 39957 ft | 488 kts | 150° |
| 2026-04-19 02:47 | 27.71081 | -82.65208 | 39316 ft | 490 kts | 151° |
| 2026-04-19 02:47 | 27.68220 | -82.63081 | 38657 ft | 493 kts | 150° |
| 2026-04-19 02:48 | 27.65350 | -82.60946 | 37968 ft | 494 kts | 150° |
| 2026-04-19 02:48 | 27.62477 | -82.58808 | 37316 ft | 495 kts | 150° |
| 2026-04-19 02:48 | 27.59591 | -82.56666 | 36662 ft | 498 kts | 151° |
| 2026-04-19 02:48 | 27.56686 | -82.54512 | 36004 ft | 501 kts | 151° |
| 2026-04-19 02:49 | 27.53765 | -82.52344 | 35343 ft | 504 kts | 151° |
| 2026-04-19 02:49 | 27.50832 | -82.50168 | 34678 ft | 505 kts | 151° |
| 2026-04-19 02:49 | 27.47892 | -82.47989 | 34003 ft | 506 kts | 151° |
| 2026-04-19 02:49 | 27.44951 | -82.45813 | 33301 ft | 504 kts | 150° |
| 2026-04-19 02:50 | 27.42060 | -82.43673 | 32642 ft | 502 kts | 150° |
| 2026-04-19 02:50 | 27.39142 | -82.41515 | 31981 ft | 500 kts | 150° |
| 2026-04-19 02:50 | 27.36238 | -82.39370 | 31324 ft | 499 kts | 149° |
| 2026-04-19 02:51 | 27.30440 | -82.35090 | 29985 ft | 498 kts | 148° |
| 2026-04-19 02:51 | 27.27546 | -82.32954 | 29304 ft | 496 kts | 148° |
| 2026-04-19 02:51 | 27.24659 | -82.30826 | 28648 ft | 497 kts | 148° |
| 2026-04-19 02:51 | 27.21767 | -82.28698 | 27994 ft | 495 kts | 148° |
| 2026-04-19 02:52 | 27.18908 | -82.26591 | 27343 ft | 486 kts | 148° |
| 2026-04-19 02:52 | 27.16108 | -82.24529 | 26709 ft | 474 kts | 148° |
| 2026-04-19 02:52 | 27.13403 | -82.22540 | 26094 ft | 456 kts | 148° |
| 2026-04-19 02:52 | 27.10769 | -82.20656 | 25501 ft | 439 kts | 152° |
| 2026-04-19 02:53 | 27.08082 | -82.19274 | 24972 ft | 424 kts | 162° |
| 2026-04-19 02:53 | 27.05284 | -82.18400 | 24673 ft | 413 kts | 171° |
| 2026-04-19 02:53 | 27.02450 | -82.17822 | 24358 ft | 416 kts | 172° |
| 2026-04-19 02:53 | 26.99598 | -82.17229 | 24035 ft | 416 kts | 172° |
| 2026-04-19 02:54 | 26.96769 | -82.16620 | 23712 ft | 412 kts | 172° |
| 2026-04-19 02:54 | 26.93953 | -82.16021 | 23349 ft | 410 kts | 172° |
| 2026-04-19 02:54 | 26.91159 | -82.15441 | 23019 ft | 408 kts | 172° |
| 2026-04-19 02:54 | 26.88374 | -82.14862 | 22700 ft | 406 kts | 172° |
| 2026-04-19 02:55 | 26.85600 | -82.14276 | 22377 ft | 404 kts | 172° |
| 2026-04-19 02:55 | 26.82844 | -82.13695 | 22065 ft | 402 kts | 172° |
| 2026-04-19 02:55 | 26.80096 | -82.13120 | 21744 ft | 400 kts | 172° |
| 2026-04-19 02:55 | 26.77384 | -82.12439 | 21415 ft | 400 kts | 165° |
| 2026-04-19 02:56 | 26.74825 | -82.11236 | 21110 ft | 400 kts | 154° |
| 2026-04-19 02:56 | 26.72503 | -82.09542 | 20797 ft | 399 kts | 143° |
| 2026-04-19 02:56 | 26.70493 | -82.07413 | 20477 ft | 397 kts | 133° |
| 2026-04-19 02:56 | 26.68848 | -82.04942 | 20170 ft | 395 kts | 125° |
| 2026-04-19 02:57 | 26.67335 | -82.02387 | 19869 ft | 393 kts | 124° |
| 2026-04-19 02:57 | 26.65813 | -81.99858 | 19563 ft | 391 kts | 125° |
| 2026-04-19 02:57 | 26.64308 | -81.97386 | 19260 ft | 389 kts | 125° |
| 2026-04-19 02:57 | 26.62796 | -81.94893 | 18955 ft | 387 kts | 125° |
| 2026-04-19 02:58 | 26.61299 | -81.92401 | 18657 ft | 385 kts | 124° |
| 2026-04-19 02:58 | 26.59809 | -81.89929 | 18354 ft | 382 kts | 125° |
| 2026-04-19 02:58 | 26.58325 | -81.87480 | 18026 ft | 379 kts | 125° |
| 2026-04-19 02:58 | 26.56848 | -81.85045 | 17724 ft | 379 kts | 125° |
| 2026-04-19 02:59 | 26.55374 | -81.82611 | 17379 ft | 376 kts | 125° |
| 2026-04-19 02:59 | 26.53918 | -81.80201 | 17069 ft | 374 kts | 125° |
| 2026-04-19 02:59 | 26.52454 | -81.77786 | 16769 ft | 374 kts | 125° |
| 2026-04-19 02:59 | 26.51002 | -81.75395 | 16475 ft | 370 kts | 125° |
| 2026-04-19 03:00 | 26.49563 | -81.73023 | 16184 ft | 369 kts | 125° |
| 2026-04-19 03:00 | 26.48124 | -81.70650 | 15894 ft | 369 kts | 125° |
| 2026-04-19 03:00 | 26.46632 | -81.68318 | 15608 ft | 368 kts | 127° |
| 2026-04-19 03:00 | 26.45118 | -81.66049 | 15337 ft | 362 kts | 127° |
| 2026-04-19 03:01 | 26.43620 | -81.63783 | 15050 ft | 364 kts | 126° |
| 2026-04-19 03:01 | 26.42135 | -81.61529 | 14761 ft | 357 kts | 126° |
| 2026-04-19 03:01 | 26.40659 | -81.59300 | 14477 ft | 358 kts | 126° |
| 2026-04-19 03:01 | 26.39179 | -81.57076 | 14194 ft | 355 kts | 126° |
| 2026-04-19 03:02 | 26.37712 | -81.54865 | 13893 ft | 354 kts | 126° |
| 2026-04-19 03:02 | 26.36248 | -81.52657 | 13596 ft | 353 kts | 126° |
| 2026-04-19 03:02 | 26.34790 | -81.50459 | 13311 ft | 351 kts | 126° |
| 2026-04-19 03:02 | 26.33339 | -81.48277 | 13034 ft | 350 kts | 126° |
| 2026-04-19 03:03 | 26.31912 | -81.46130 | 12766 ft | 348 kts | 126° |
| 2026-04-19 03:03 | 26.30476 | -81.43970 | 12492 ft | 345 kts | 126° |
| 2026-04-19 03:03 | 26.29045 | -81.41819 | 12225 ft | 345 kts | 126° |
| 2026-04-19 03:03 | 26.27617 | -81.39674 | 11953 ft | 343 kts | 126° |
| 2026-04-19 03:04 | 26.26196 | -81.37540 | 11685 ft | 344 kts | 126° |
| 2026-04-19 03:04 | 26.24774 | -81.35404 | 11414 ft | 341 kts | 126° |
| 2026-04-19 03:04 | 26.23378 | -81.33313 | 11153 ft | 330 kts | 126° |
| 2026-04-19 03:04 | 26.22044 | -81.31313 | 10885 ft | 313 kts | 126° |
| 2026-04-19 03:05 | 26.20778 | -81.29414 | 10584 ft | 299 kts | 126° |
| 2026-04-19 03:05 | 26.19560 | -81.27591 | 10301 ft | 289 kts | 126° |
| 2026-04-19 03:05 | 26.18368 | -81.25807 | 10021 ft | 286 kts | 126° |
| 2026-04-19 03:05 | 26.17180 | -81.24029 | 9730 ft | 287 kts | 126° |
| 2026-04-19 03:06 | 26.15982 | -81.22237 | 9442 ft | 288 kts | 126° |
| 2026-04-19 03:06 | 26.14801 | -81.20471 | 9166 ft | 288 kts | 126° |
| 2026-04-19 03:06 | 26.13606 | -81.18684 | 8883 ft | 286 kts | 126° |
| 2026-04-19 03:06 | 26.12419 | -81.16912 | 8607 ft | 284 kts | 126° |
| 2026-04-19 03:07 | 26.11244 | -81.15156 | 8333 ft | 282 kts | 127° |
| 2026-04-19 03:07 | 26.10077 | -81.13415 | 8060 ft | 280 kts | 127° |
| 2026-04-19 03:07 | 26.08917 | -81.11683 | 7791 ft | 278 kts | 127° |
| 2026-04-19 03:07 | 26.07763 | -81.09960 | 7522 ft | 277 kts | 127° |
| 2026-04-19 03:08 | 26.06617 | -81.08253 | 7257 ft | 275 kts | 127° |
| 2026-04-19 03:08 | 26.05477 | -81.06554 | 6991 ft | 273 kts | 127° |
| 2026-04-19 03:08 | 26.04344 | -81.04865 | 6734 ft | 272 kts | 127° |
| 2026-04-19 03:08 | 26.03214 | -81.03182 | 6462 ft | 270 kts | 127° |
| 2026-04-19 03:09 | 26.02095 | -81.01515 | 6190 ft | 269 kts | 127° |
| 2026-04-19 03:09 | 26.01051 | -80.99797 | 5978 ft | 265 kts | 118° |
| 2026-04-19 03:09 | 26.00366 | -80.97893 | 5975 ft | 273 kts | 111° |
| 2026-04-19 03:09 | 25.99683 | -80.95890 | 5978 ft | 275 kts | 111° |
| 2026-04-19 03:10 | 25.98998 | -80.93941 | 5971 ft | 268 kts | 112° |
| 2026-04-19 03:10 | 25.98316 | -80.92003 | 5971 ft | 271 kts | 111° |
| 2026-04-19 03:10 | 25.97647 | -80.90081 | 5976 ft | 270 kts | 111° |
| 2026-04-19 03:10 | 25.96959 | -80.88103 | 5980 ft | 277 kts | 111° |
| 2026-04-19 03:11 | 25.96267 | -80.86118 | 5982 ft | 272 kts | 111° |
| 2026-04-19 03:11 | 25.95581 | -80.84150 | 5982 ft | 275 kts | 111° |
| 2026-04-19 03:11 | 25.94889 | -80.82169 | 5982 ft | 273 kts | 111° |
| 2026-04-19 03:11 | 25.94203 | -80.80205 | 5982 ft | 274 kts | 111° |
| 2026-04-19 03:12 | 25.93522 | -80.78239 | 5978 ft | 271 kts | 110° |
| 2026-04-19 03:12 | 25.93139 | -80.76192 | 5973 ft | 272 kts | 95° |
| 2026-04-19 03:12 | 25.92954 | -80.74088 | 5974 ft | 272 kts | 95° |
| 2026-04-19 03:12 | 25.92745 | -80.72028 | 5974 ft | 272 kts | 96° |
| 2026-04-19 03:13 | 25.92520 | -80.69939 | 5974 ft | 273 kts | 96° |
| 2026-04-19 03:13 | 25.92301 | -80.67823 | 5974 ft | 272 kts | 96° |
| 2026-04-19 03:13 | 25.92091 | -80.65755 | 5974 ft | 273 kts | 96° |
| 2026-04-19 03:13 | 25.91878 | -80.63655 | 5926 ft | 275 kts | 96° |
| 2026-04-19 03:14 | 25.91660 | -80.61539 | 5646 ft | 275 kts | 96° |
| 2026-04-19 03:14 | 25.91443 | -80.59449 | 5301 ft | 270 kts | 96° |
| 2026-04-19 03:14 | 25.91231 | -80.57388 | 4949 ft | 266 kts | 96° |
| 2026-04-19 03:14 | 25.91078 | -80.55358 | 4595 ft | 262 kts | 91° |
| 2026-04-19 03:15 | 25.91061 | -80.54019 | 4369 ft | 262 kts | 90° |
| 2026-04-19 03:15 | 25.91050 | -80.51973 | 4021 ft | 261 kts | 89° |
| 2026-04-19 03:15 | 25.91025 | -80.50004 | 3684 ft | 254 kts | 90° |
| 2026-04-19 03:15 | 25.90991 | -80.48074 | 3353 ft | 245 kts | 91° |
| 2026-04-19 03:16 | 25.90960 | -80.46211 | 3040 ft | 237 kts | 91° |
| 2026-04-19 03:16 | 25.90933 | -80.44449 | 3017 ft | 219 kts | 91° |
| 2026-04-19 03:16 | 25.90908 | -80.42814 | 3011 ft | 205 kts | 91° |
| 2026-04-19 03:16 | 25.90883 | -80.41255 | 2991 ft | 201 kts | 91° |
| 2026-04-19 03:17 | 25.90838 | -80.39684 | 2903 ft | 205 kts | 92° |
| 2026-04-19 03:17 | 25.90816 | -80.38128 | 2733 ft | 196 kts | 90° |
| 2026-04-19 03:17 | 25.90835 | -80.36659 | 2394 ft | 186 kts | 88° |
| 2026-04-19 03:17 | 25.90866 | -80.35229 | 2096 ft | 187 kts | 88° |
| 2026-04-19 03:18 | 25.90945 | -80.33797 | 1834 ft | 187 kts | 85° |
| 2026-04-19 03:18 | 25.91053 | -80.32417 | 1329 ft | 166 kts | 86° |
| 2026-04-19 03:18 | 25.91121 | -80.31230 | 876 ft | 143 kts | 85° |
| 2026-04-19 03:18 | 25.91206 | -80.30189 | 526 ft | 129 kts | 86° |
| 2026-04-19 03:19 | 25.91253 | -80.29240 | 159 ft | 116 kts | 89° |
| 2026-04-19 03:19 | 25.91290 | -80.28413 | 13 ft | 95 kts | 88° |
| 2026-04-19 03:19 | 25.91317 | -80.27790 | 10 ft | 63 kts | 86° |
| 2026-04-19 03:19 | 25.91336 | -80.27422 | 17 ft | 38 kts | 88° |
| 2026-04-19 03:20 | 25.91304 | -80.27312 | 18 ft | 0 kts | 164° |
| 2026-04-19 03:20 | 25.91283 | -80.27316 | 18 ft | 8 kts | 197° |
| 2026-04-19 03:20 | 25.91210 | -80.27344 | 17 ft | 0 kts | 141° |
| 2026-04-19 03:20 | 25.91207 | -80.27341 | 17 ft | 2 kts | 120° |
| 2026-04-19 03:21 | 25.91207 | -80.27247 | 19 ft | 21 kts | 85° |
| 2026-04-19 03:21 | 25.91215 | -80.27071 | 17 ft | 25 kts | 85° |
| 2026-04-19 03:21 | 25.91167 | -80.27006 | 17 ft | 10 kts | 185° |
| 2026-04-19 03:21 | 25.91081 | -80.27014 | 16 ft | 12 kts | 182° |
| 2026-04-19 03:22 | 25.91061 | -80.27006 | 16 ft | 4 kts | 144° |
| 2026-04-19 03:22 | 25.91055 | -80.26994 | 16 ft | 3 kts | 92° |
| 2026-04-19 03:22 | 25.91054 | -80.26938 | 16 ft | 10 kts | 91° |
| 2026-04-19 03:22 | 25.91075 | -80.26847 | 15 ft | 14 kts | 46° |
| 2026-04-19 03:23 | 25.91100 | -80.26778 | 16 ft | 5 kts | 153° |
| 2026-04-19 03:23 | 25.91073 | -80.26800 | 15 ft | 9 kts | 221° |
| 2026-04-19 03:23 | 25.91070 | -80.26803 | 15 ft | 0 kts | 219° |